createdAt,value
2023-02-14T00:01:28.880Z,60.47
2023-02-14T00:04:00.717Z,60.72
2023-02-14T00:06:28.741Z,60.12
2023-02-14T00:08:55.739Z,60.34
2023-02-14T00:11:23.300Z,60.53
2023-02-14T00:14:10.603Z,60.71
2023-02-14T00:16:37.692Z,60.75
2023-02-14T00:19:04.674Z,60.56
2023-02-14T00:21:33.292Z,60.24
2023-02-14T00:24:00.159Z,60.37
2023-02-14T00:26:27.151Z,61.01
2023-02-14T00:28:54.231Z,60.52
2023-02-14T00:31:24.255Z,60.74
2023-02-14T00:33:51.303Z,60.54
2023-02-14T00:36:20.215Z,60.79
2023-02-14T00:38:47.250Z,60.58
2023-02-14T00:41:19.566Z,60.97
2023-02-14T00:43:47.855Z,61.32
2023-02-14T00:46:16.473Z,61.25
2023-02-14T00:48:43.689Z,61.29
2023-02-14T00:51:11.380Z,61.47
2023-02-14T00:53:38.597Z,61.12
2023-02-14T00:56:06.548Z,61.37
2023-02-14T00:58:33.582Z,61.64
2023-02-14T01:01:01.116Z,61.86
2023-02-14T01:03:32.550Z,61.85
2023-02-14T01:06:00.352Z,61.30
2023-02-14T01:08:27.781Z,61.26
2023-02-14T01:10:54.868Z,61.39
2023-02-14T01:13:31.746Z,61.89
2023-02-14T01:15:58.792Z,61.55
2023-02-14T01:18:27.485Z,61.40
2023-02-14T01:21:09.696Z,61.83
2023-02-14T01:23:39.903Z,62.13
2023-02-14T01:26:08.645Z,62.14
2023-02-14T01:28:36.424Z,62.38
2023-02-14T01:31:18.759Z,62.24
2023-02-14T01:33:53.892Z,61.93
2023-02-14T01:36:27.391Z,62.41
2023-02-14T01:38:59.164Z,62.22
2023-02-14T01:41:31.291Z,62.38
2023-02-14T01:44:05.266Z,62.30
2023-02-14T01:46:37.669Z,62.65
2023-02-14T01:49:28.083Z,62.46
2023-02-14T01:52:04.374Z,63.08
2023-02-14T01:54:33.777Z,63.01
2023-02-14T01:57:08.260Z,62.63
2023-02-14T01:59:37.282Z,63.58
2023-02-14T02:02:05.598Z,63.07
2023-02-14T02:04:38.461Z,63.01
2023-02-14T02:07:10.450Z,62.75
2023-02-14T02:09:52.864Z,62.55
2023-02-14T02:12:20.352Z,63.03
2023-02-14T02:14:49.936Z,62.80
2023-02-14T02:17:43.807Z,62.64
2023-02-14T02:20:23.115Z,63.00
2023-02-14T02:23:09.013Z,62.65
2023-02-14T02:25:36.240Z,62.62
2023-02-14T02:28:33.641Z,62.79
2023-02-14T02:31:18.972Z,63.34
2023-02-14T02:34:08.949Z,62.83
2023-02-14T02:37:10.402Z,63.20
2023-02-14T02:40:29.491Z,62.92
2023-02-14T02:43:15.197Z,62.89
2023-02-14T02:46:26.909Z,62.55
2023-02-14T02:49:07.165Z,62.78
2023-02-14T02:52:03.153Z,63.08
2023-02-14T02:54:45.035Z,62.95
2023-02-14T02:57:36.844Z,63.01
2023-02-14T03:00:07.821Z,62.41
2023-02-14T03:02:59.562Z,62.43
2023-02-14T03:05:30.739Z,62.85
2023-02-14T03:07:58.054Z,62.55
2023-02-14T03:10:38.786Z,63.12
2023-02-14T03:13:14.750Z,62.99
2023-02-14T03:15:41.692Z,63.17
2023-02-14T03:18:32.187Z,63.36
2023-02-14T03:21:23.487Z,62.99
2023-02-14T03:24:19.669Z,63.28
2023-02-14T03:26:54.146Z,63.46
2023-02-14T03:29:43.559Z,63.97
2023-02-14T03:32:21.541Z,63.38
2023-02-14T03:34:56.993Z,63.50
2023-02-14T03:37:34.040Z,63.75
2023-02-14T03:40:22.078Z,64.40
2023-02-14T03:42:57.528Z,63.97
2023-02-14T03:45:41.962Z,63.90
2023-02-14T03:48:13.397Z,63.91
2023-02-14T03:50:42.978Z,63.66
2023-02-14T03:53:12.876Z,63.68
2023-02-14T03:55:58.627Z,64.25
2023-02-14T03:58:51.943Z,63.88
2023-02-14T04:01:21.881Z,63.81
2023-02-14T04:03:50.538Z,63.57
2023-02-14T04:06:22.826Z,64.02
2023-02-14T04:08:50.817Z,63.79
2023-02-14T04:11:17.752Z,63.41
2023-02-14T04:13:44.781Z,63.67
2023-02-14T04:16:11.744Z,63.89
2023-02-14T04:18:57.454Z,63.68
2023-02-14T04:21:24.417Z,64.05
2023-02-14T04:23:51.417Z,63.58
2023-02-14T04:26:18.553Z,63.58
2023-02-14T04:28:45.546Z,63.79
2023-02-14T04:31:12.596Z,63.76
2023-02-14T04:33:39.705Z,63.58
2023-02-14T04:36:07.076Z,63.48
2023-02-14T04:38:34.070Z,63.86
2023-02-14T04:41:01.507Z,63.53
2023-02-14T04:43:28.959Z,63.62
2023-02-14T04:45:55.878Z,63.43
2023-02-14T04:48:22.958Z,63.46
2023-02-14T04:50:55.908Z,63.92
2023-02-14T04:53:23.134Z,63.84
2023-02-14T04:55:50.674Z,63.83
2023-02-14T04:58:18.178Z,63.71
2023-02-14T05:00:45.250Z,64.19
2023-02-14T05:03:12.259Z,63.70
2023-02-14T05:05:39.277Z,63.67
2023-02-14T05:08:06.270Z,63.61
2023-02-14T05:10:33.257Z,63.67
2023-02-14T05:13:01.426Z,63.60
2023-02-14T05:15:28.404Z,63.27
2023-02-14T05:17:55.389Z,63.29
2023-02-14T05:20:22.537Z,63.51
2023-02-14T05:22:49.430Z,63.30
2023-02-14T05:25:16.437Z,63.45
2023-02-14T05:27:43.448Z,63.11
2023-02-14T05:30:11.226Z,63.02
2023-02-14T05:32:38.163Z,62.68
2023-02-14T05:35:05.423Z,62.69
2023-02-14T05:37:32.343Z,62.54
2023-02-14T05:39:59.439Z,62.58
2023-02-14T05:42:26.401Z,62.56
2023-02-14T05:44:53.332Z,62.22
2023-02-14T05:47:20.230Z,62.53
2023-02-14T05:49:47.173Z,62.51
2023-02-14T05:52:14.114Z,62.21
2023-02-14T05:54:41.087Z,62.40
2023-02-14T05:57:08.015Z,62.43
2023-02-14T05:59:35.118Z,62.62
2023-02-14T06:02:02.133Z,62.36
2023-02-14T06:04:29.139Z,62.17
2023-02-14T06:06:56.073Z,62.23
2023-02-14T06:09:23.001Z,62.31
2023-02-14T06:11:49.975Z,62.03
2023-02-14T06:14:16.954Z,62.03
2023-02-14T06:16:43.987Z,62.44
2023-02-14T06:19:10.940Z,62.36
2023-02-14T06:21:37.971Z,62.24
2023-02-14T06:24:05.007Z,62.13
2023-02-14T06:26:33.315Z,62.14
2023-02-14T06:29:00.240Z,62.40
2023-02-14T06:31:27.293Z,62.52
2023-02-14T06:33:55.182Z,62.24
2023-02-14T06:36:23.852Z,62.31
2023-02-14T06:38:51.031Z,62.23
2023-02-14T06:41:18.020Z,62.50
2023-02-14T06:43:48.647Z,62.35
2023-02-14T06:46:16.780Z,62.37
2023-02-14T06:48:44.414Z,61.98
2023-02-14T06:51:11.718Z,62.24
2023-02-14T06:53:38.848Z,62.02
2023-02-14T06:56:06.570Z,61.86
2023-02-14T06:58:33.645Z,62.14
2023-02-14T07:01:00.987Z,61.49
2023-02-14T07:03:28.180Z,60.71
2023-02-14T07:05:55.526Z,59.51
2023-02-14T07:08:23.364Z,58.52
2023-02-14T07:10:51.739Z,58.00
2023-02-14T07:13:18.631Z,57.33
2023-02-14T07:15:47.329Z,56.44
2023-02-14T07:18:14.385Z,55.61
2023-02-14T07:20:41.452Z,54.78
2023-02-14T07:23:08.303Z,54.12
2023-02-14T07:25:35.405Z,53.23
2023-02-14T07:28:03.074Z,52.24
2023-02-14T07:30:30.088Z,51.87
2023-02-14T07:32:57.992Z,50.82
2023-02-14T07:35:25.207Z,49.73
2023-02-14T07:37:52.263Z,48.26
2023-02-14T07:40:22.525Z,47.18
2023-02-14T07:42:57.001Z,45.39
2023-02-14T07:45:25.859Z,45.77
2023-02-14T07:47:55.237Z,45.58
2023-02-14T07:50:23.684Z,45.84
2023-02-14T07:52:50.799Z,46.06
2023-02-14T07:55:19.396Z,44.90
2023-02-14T07:57:48.560Z,44.70
2023-02-14T08:00:15.843Z,42.66
2023-02-14T08:02:42.755Z,42.54
2023-02-14T08:05:10.161Z,40.93
2023-02-14T08:07:37.147Z,39.27
2023-02-14T08:10:04.502Z,38.06
2023-02-14T08:12:50.204Z,36.87
2023-02-14T08:15:35.855Z,35.79
2023-02-14T08:18:03.087Z,34.14
2023-02-14T08:20:31.927Z,34.31
2023-02-14T08:22:59.006Z,33.82
2023-02-14T08:25:25.937Z,33.20
2023-02-14T08:27:52.782Z,32.30
2023-02-14T08:30:19.684Z,31.29
2023-02-14T08:32:46.969Z,30.60
2023-02-14T08:35:14.542Z,30.08
2023-02-14T08:37:41.490Z,29.16
2023-02-14T08:40:08.896Z,28.09
2023-02-14T08:42:36.069Z,27.05
2023-02-14T08:45:03.104Z,27.71
2023-02-14T08:47:35.898Z,26.30
2023-02-14T08:50:04.572Z,25.62
2023-02-14T08:52:31.628Z,26.08
2023-02-14T08:54:59.303Z,25.15
2023-02-14T08:57:27.798Z,24.65
2023-02-14T08:59:54.874Z,24.47
2023-02-14T09:02:24.057Z,24.00
2023-02-14T09:04:51.144Z,23.54
2023-02-14T09:07:18.524Z,23.45
2023-02-14T09:09:45.631Z,23.01
2023-02-14T09:12:12.715Z,22.11
2023-02-14T09:14:44.102Z,22.06
2023-02-14T09:17:15.376Z,21.57
2023-02-14T09:19:42.928Z,21.35
2023-02-14T09:22:11.397Z,21.47
2023-02-14T09:24:39.609Z,20.64
2023-02-14T09:27:06.651Z,21.34
2023-02-14T09:29:34.243Z,20.32
2023-02-14T09:32:02.437Z,20.46
2023-02-14T09:34:30.226Z,19.55
2023-02-14T09:36:57.786Z,19.76
2023-02-14T09:39:25.009Z,19.45
2023-02-14T09:41:57.994Z,19.86
2023-02-14T09:44:30.336Z,18.88
2023-02-14T09:47:03.016Z,18.78
2023-02-14T09:49:36.209Z,17.95
2023-02-14T09:52:06.868Z,18.41
2023-02-14T09:54:36.080Z,18.27
2023-02-14T09:57:14.469Z,17.92
2023-02-14T09:59:50.222Z,18.40
2023-02-14T10:02:43.401Z,18.25
2023-02-14T10:05:37.113Z,17.68
2023-02-14T10:08:22.647Z,17.29
2023-02-14T10:11:10.122Z,16.90
2023-02-14T10:13:46.271Z,17.58
2023-02-14T10:16:29.600Z,17.15
2023-02-14T10:19:05.588Z,17.60
2023-02-14T10:21:40.003Z,17.52
2023-02-14T10:24:25.307Z,17.02
2023-02-14T10:26:57.877Z,16.94
2023-02-14T10:29:27.193Z,17.09
2023-02-14T10:32:02.663Z,17.33
2023-02-14T10:34:41.821Z,16.30
2023-02-14T10:37:26.825Z,15.85
2023-02-14T10:39:57.017Z,16.82
2023-02-14T10:42:50.315Z,17.20
2023-02-14T10:45:28.281Z,17.89
2023-02-14T10:48:23.209Z,16.53
2023-02-14T10:51:19.404Z,17.01
2023-02-14T10:54:18.565Z,17.30
2023-02-14T10:56:52.825Z,17.12
2023-02-14T10:59:26.072Z,18.30
2023-02-14T11:01:55.068Z,19.05
2023-02-14T11:04:25.063Z,19.69
2023-02-14T11:06:52.853Z,19.60
2023-02-14T11:09:21.035Z,18.99
2023-02-14T11:11:54.501Z,18.60
2023-02-14T11:14:26.387Z,19.01
2023-02-14T11:16:54.520Z,19.58
2023-02-14T11:19:29.875Z,20.95
2023-02-14T11:21:59.773Z,22.32
2023-02-14T11:24:29.319Z,23.43
2023-02-14T11:27:00.539Z,24.27
2023-02-14T11:29:45.190Z,24.76
2023-02-14T11:32:28.607Z,25.43
2023-02-14T11:35:08.248Z,27.13
2023-02-14T11:37:49.935Z,27.33
2023-02-14T11:40:36.589Z,27.78
2023-02-14T11:43:15.630Z,29.62
2023-02-14T11:45:44.557Z,29.42
2023-02-14T11:48:37.835Z,32.73
2023-02-14T11:51:11.032Z,32.37
2023-02-14T11:53:49.004Z,32.56
2023-02-14T11:56:18.227Z,32.90
2023-02-14T11:58:45.148Z,33.23
2023-02-14T12:01:22.307Z,34.01
2023-02-14T12:03:50.624Z,34.34
2023-02-14T12:06:30.515Z,36.00
2023-02-14T12:09:22.798Z,36.35
2023-02-14T12:11:57.629Z,36.20
2023-02-14T12:14:29.637Z,36.22
2023-02-14T12:17:35.829Z,36.88
2023-02-14T12:20:19.686Z,38.41
2023-02-14T12:23:07.475Z,37.55
2023-02-14T12:25:50.752Z,38.23
2023-02-14T12:28:27.781Z,38.64
2023-02-14T12:30:54.776Z,38.45
2023-02-14T12:33:23.594Z,38.72
2023-02-14T12:35:59.592Z,39.03
2023-02-14T12:38:32.523Z,39.24
2023-02-14T12:41:36.992Z,40.46
2023-02-14T12:44:16.836Z,41.38
2023-02-14T12:47:15.717Z,41.87
2023-02-14T12:49:49.483Z,41.25
2023-02-14T12:52:28.392Z,42.44
2023-02-14T12:55:17.150Z,42.94
2023-02-14T12:57:46.938Z,42.16
2023-02-14T13:00:35.224Z,43.31
2023-02-14T13:03:39.262Z,43.17
2023-02-14T13:06:47.283Z,43.75
2023-02-14T13:09:47.857Z,44.26
2023-02-14T13:12:46.091Z,44.36
2023-02-14T13:15:13.131Z,43.63
2023-02-14T13:17:47.560Z,44.32
2023-02-14T13:20:26.084Z,45.00
2023-02-14T13:22:56.005Z,44.12
2023-02-14T13:25:32.030Z,45.25
2023-02-14T13:28:01.998Z,45.31
2023-02-14T13:30:35.286Z,45.58
2023-02-14T13:33:09.596Z,45.29
2023-02-14T13:35:37.681Z,44.83
2023-02-14T13:38:08.656Z,45.69
2023-02-14T13:40:36.623Z,45.38
2023-02-14T13:43:04.112Z,45.37
2023-02-14T13:45:37.774Z,45.58
2023-02-14T13:48:13.981Z,46.20
2023-02-14T13:51:06.285Z,46.11
2023-02-14T13:53:41.942Z,45.51
2023-02-14T13:56:11.907Z,45.66
2023-02-14T13:58:52.656Z,45.84
2023-02-14T14:01:50.774Z,46.24
2023-02-14T14:04:27.957Z,46.26
2023-02-14T14:07:04.147Z,46.38
2023-02-14T14:09:43.740Z,45.53
2023-02-14T14:12:29.287Z,46.41
2023-02-14T14:15:04.962Z,46.40
2023-02-14T14:17:33.685Z,46.21
2023-02-14T14:20:02.543Z,46.65
2023-02-14T14:22:29.690Z,46.82
2023-02-14T14:25:01.139Z,47.59
2023-02-14T14:27:35.552Z,47.35
2023-02-14T14:30:07.496Z,47.25
2023-02-14T14:32:37.423Z,47.65
2023-02-14T14:35:17.069Z,48.15
2023-02-14T14:37:53.105Z,48.27
2023-02-14T14:40:25.694Z,48.06
2023-02-14T14:42:54.345Z,47.55
2023-02-14T14:45:27.419Z,48.17
2023-02-14T14:48:00.585Z,48.92
2023-02-14T14:50:35.969Z,48.98
2023-02-14T14:53:11.893Z,49.49
2023-02-14T14:55:45.823Z,48.47
2023-02-14T14:58:32.816Z,49.77
2023-02-14T15:00:59.904Z,49.34
2023-02-14T15:03:28.513Z,48.98
2023-02-14T15:06:19.196Z,50.19
2023-02-14T15:08:48.245Z,49.92
2023-02-14T15:11:48.278Z,50.32
2023-02-14T15:14:22.593Z,50.63
2023-02-14T15:16:57.780Z,51.61
2023-02-14T15:19:34.858Z,50.39
2023-02-14T15:22:07.805Z,50.49
2023-02-14T15:24:38.438Z,50.42
2023-02-14T15:27:05.675Z,49.98
2023-02-14T15:29:33.464Z,49.37
2023-02-14T15:32:03.241Z,48.76
2023-02-14T15:34:36.230Z,48.84
2023-02-14T15:37:07.013Z,48.91
2023-02-14T15:39:39.156Z,48.40
2023-02-14T15:42:06.868Z,48.13
2023-02-14T15:44:34.026Z,48.71
2023-02-14T15:47:03.984Z,49.07
2023-02-14T15:49:36.008Z,48.67
2023-02-14T15:52:05.925Z,49.42
2023-02-14T15:54:45.500Z,49.43
2023-02-14T15:57:27.677Z,49.87
2023-02-14T15:59:55.224Z,49.70
2023-02-14T16:02:38.830Z,50.18
2023-02-14T16:05:26.242Z,50.04
2023-02-14T16:08:29.581Z,49.58
2023-02-14T16:11:01.774Z,49.47
2023-02-14T16:13:35.155Z,50.03
2023-02-14T16:16:11.356Z,49.88
2023-02-14T16:18:49.263Z,49.68
2023-02-14T16:21:25.867Z,49.71
2023-02-14T16:24:08.174Z,49.36
2023-02-14T16:26:38.323Z,49.55
2023-02-14T16:29:07.297Z,49.26
2023-02-14T16:31:34.929Z,49.53
2023-02-14T16:34:02.037Z,49.37
2023-02-14T16:36:34.098Z,49.57
2023-02-14T16:39:05.395Z,49.87
2023-02-14T16:41:34.444Z,49.63
2023-02-14T16:44:01.341Z,49.59
2023-02-14T16:46:32.971Z,49.80
2023-02-14T16:49:00.104Z,49.62
2023-02-14T16:51:32.889Z,49.65
2023-02-14T16:54:03.039Z,49.50
2023-02-14T16:56:38.099Z,50.04
2023-02-14T16:59:05.266Z,49.81
2023-02-14T17:01:32.746Z,49.91
2023-02-14T17:04:00.819Z,50.37
2023-02-14T17:06:31.598Z,49.84
2023-02-14T17:09:03.017Z,49.67
2023-02-14T17:11:32.434Z,49.86
2023-02-14T17:13:59.634Z,50.08
2023-02-14T17:16:27.185Z,50.43
2023-02-14T17:18:54.258Z,50.19
2023-02-14T17:21:23.252Z,50.31
2023-02-14T17:23:52.772Z,50.74
2023-02-14T17:26:20.087Z,50.67
2023-02-14T17:28:47.423Z,51.28
2023-02-14T17:31:14.670Z,50.90
2023-02-14T17:33:41.762Z,51.06
2023-02-14T17:36:12.148Z,51.87
2023-02-14T17:38:40.636Z,51.71
2023-02-14T17:41:17.013Z,52.10
2023-02-14T17:43:44.010Z,52.92
2023-02-14T17:46:11.688Z,52.11
2023-02-14T17:48:38.587Z,51.86
2023-02-14T17:51:07.448Z,51.96
2023-02-14T17:53:35.141Z,52.10
2023-02-14T17:56:07.368Z,52.49
2023-02-14T17:58:35.592Z,51.98
2023-02-14T18:01:11.402Z,52.43
2023-02-14T18:03:39.929Z,52.60
2023-02-14T18:06:08.051Z,52.35
2023-02-14T18:08:41.030Z,53.13
2023-02-14T18:11:10.730Z,53.16
2023-02-14T18:13:38.699Z,53.37
2023-02-14T18:16:11.508Z,53.09
2023-02-14T18:18:39.339Z,53.41
2023-02-14T18:21:09.338Z,53.06
2023-02-14T18:23:37.613Z,52.45
2023-02-14T18:26:10.133Z,52.71
2023-02-14T18:28:37.126Z,53.32
2023-02-14T18:31:12.699Z,53.34
2023-02-14T18:33:39.858Z,53.54
2023-02-14T18:36:11.979Z,53.42
2023-02-14T18:38:40.688Z,53.10
2023-02-14T18:41:10.769Z,52.80
2023-02-14T18:43:38.697Z,52.88
2023-02-14T18:46:08.364Z,52.89
2023-02-14T18:48:36.042Z,52.29
2023-02-14T18:51:11.609Z,51.92
2023-02-14T18:53:39.590Z,53.02
2023-02-14T18:56:08.519Z,52.98
2023-02-14T18:58:36.143Z,52.13
2023-02-14T19:01:10.111Z,52.64
2023-02-14T19:03:40.542Z,52.21
2023-02-14T19:06:08.591Z,52.20
2023-02-14T19:08:37.740Z,52.13
2023-02-14T19:11:10.114Z,52.15
2023-02-14T19:13:37.492Z,53.17
2023-02-14T19:16:13.073Z,52.71
2023-02-14T19:18:40.409Z,53.31
2023-02-14T19:21:20.076Z,52.95
2023-02-14T19:23:47.406Z,52.59
2023-02-14T19:26:18.034Z,52.51
2023-02-14T19:28:46.880Z,52.58
2023-02-14T19:31:15.338Z,52.32
2023-02-14T19:33:46.680Z,52.29
2023-02-14T19:36:16.876Z,52.42
2023-02-14T19:38:46.135Z,52.18
2023-02-14T19:41:29.908Z,52.68
2023-02-14T19:43:58.457Z,52.64
2023-02-14T19:46:26.719Z,52.41
2023-02-14T19:48:53.887Z,52.73
2023-02-14T19:51:25.850Z,52.65
2023-02-14T19:53:54.159Z,53.61
2023-02-14T19:56:22.996Z,53.19
2023-02-14T19:58:51.570Z,52.77
2023-02-14T20:01:36.233Z,53.18
2023-02-14T20:04:04.746Z,53.83
2023-02-14T20:06:31.874Z,53.45
2023-02-14T20:08:59.094Z,53.60
2023-02-14T20:11:36.430Z,54.62
2023-02-14T20:14:05.435Z,53.87
2023-02-14T20:16:34.363Z,53.78
2023-02-14T20:19:03.563Z,53.49
2023-02-14T20:21:30.529Z,53.89
2023-02-14T20:24:06.960Z,53.28
2023-02-14T20:26:39.529Z,53.33
2023-02-14T20:29:07.568Z,53.84
2023-02-14T20:31:35.172Z,54.06
2023-02-14T20:34:02.982Z,54.72
2023-02-14T20:36:30.885Z,55.42
2023-02-14T20:38:59.812Z,54.81
2023-02-14T20:41:28.003Z,54.03
2023-02-14T20:43:55.829Z,54.98
2023-02-14T20:46:23.627Z,54.23
2023-02-14T20:48:51.110Z,54.38
2023-02-14T20:51:20.549Z,54.16
2023-02-14T20:53:51.476Z,54.59
2023-02-14T20:56:18.945Z,54.01
2023-02-14T20:58:45.890Z,54.37
2023-02-14T21:01:21.534Z,54.22
2023-02-14T21:03:51.055Z,54.76
2023-02-14T21:06:20.111Z,54.30
2023-02-14T21:08:47.744Z,54.35
2023-02-14T21:11:17.247Z,55.03
2023-02-14T21:13:44.433Z,54.55
2023-02-14T21:16:16.536Z,55.56
2023-02-14T21:18:51.818Z,55.03
2023-02-14T21:21:25.902Z,54.77
2023-02-14T21:23:54.242Z,54.62
2023-02-14T21:26:21.449Z,54.85
2023-02-14T21:28:48.884Z,55.26
2023-02-14T21:31:20.916Z,55.34
2023-02-14T21:33:57.543Z,55.50
2023-02-14T21:36:27.013Z,55.16
2023-02-14T21:38:58.519Z,54.98
2023-02-14T21:41:28.200Z,55.18
2023-02-14T21:43:58.411Z,55.75
2023-02-14T21:46:30.836Z,55.26
2023-02-14T21:49:18.254Z,55.47
2023-02-14T21:51:46.380Z,55.34
2023-02-14T21:54:14.124Z,55.10
2023-02-14T21:56:44.416Z,55.33
2023-02-14T21:59:12.463Z,55.40
2023-02-14T22:01:41.727Z,55.48
2023-02-14T22:04:10.311Z,55.62
2023-02-14T22:06:39.483Z,55.74
2023-02-14T22:09:07.069Z,55.52
2023-02-14T22:11:34.577Z,56.18
2023-02-14T22:14:01.727Z,55.67
2023-02-14T22:16:28.824Z,55.75
2023-02-14T22:18:55.928Z,55.58
2023-02-14T22:21:25.111Z,55.88
2023-02-14T22:23:52.476Z,55.62
2023-02-14T22:26:25.927Z,56.15
2023-02-14T22:28:57.266Z,55.89
2023-02-14T22:31:25.601Z,56.86
2023-02-14T22:33:53.311Z,56.74
2023-02-14T22:36:20.808Z,57.25
2023-02-14T22:38:47.787Z,56.51
2023-02-14T22:41:17.552Z,56.46
2023-02-14T22:43:45.750Z,56.83
2023-02-14T22:46:19.546Z,56.79
2023-02-14T22:48:48.356Z,57.01
2023-02-14T22:51:25.225Z,57.06
2023-02-14T22:53:54.845Z,57.30
2023-02-14T22:56:27.565Z,57.32
2023-02-14T22:58:56.831Z,56.48
2023-02-14T23:01:24.836Z,57.02
2023-02-14T23:03:57.251Z,57.24
2023-02-14T23:06:26.191Z,57.05
2023-02-14T23:08:53.933Z,57.32
2023-02-14T23:11:23.930Z,56.96
2023-02-14T23:14:09.825Z,57.44
2023-02-14T23:16:55.625Z,58.02
2023-02-14T23:19:43.724Z,57.73
2023-02-14T23:22:12.420Z,58.08
2023-02-14T23:24:39.484Z,57.78
2023-02-14T23:27:07.646Z,57.96
2023-02-14T23:29:35.568Z,57.38
2023-02-14T23:32:02.750Z,57.85
2023-02-14T23:34:32.094Z,58.44
2023-02-14T23:36:59.762Z,57.75
2023-02-14T23:39:26.768Z,58.21
2023-02-14T23:41:54.022Z,58.01
2023-02-14T23:44:28.475Z,58.55
2023-02-14T23:46:58.153Z,58.61
2023-02-14T23:49:26.356Z,58.52
2023-02-14T23:51:55.269Z,57.71
2023-02-14T23:54:24.238Z,58.61
2023-02-14T23:56:52.650Z,58.01
2023-02-14T23:59:20.748Z,58.11
